• Join FlightAware (Why Join?)
  • Login
  • US Flag 
09:21PM EDT


 

Airport Tracker/Info


-or-


 

Live Flight TrackerFlight Track Log ✈ EJM685 ✈ 23-Mar-2014 ✈ KTEB - KMCO

Flight Track Log - Related Links

Times and Time Zones

All times are in EDT time to prevent confusion due to time zone crossing. See the EJM685 flight status page for this flight to view local times or setup timezone preferences in your user account.

Time Position Orientation Groundspeed Altitude Reporting Facility
EDT Latitude Longitude Course Direction KTS MPH feet Rate Location/Type
11:20AM 40.9000 -74.0500 270° West 190 219 2,600  Level New York TRACON
11:21AM 40.9000 -74.1333 270° West 234 269 5,000 1,680 Climbing New York TRACON
11:22AM 40.8667 -74.2000 237° Southwest 217 250 6,000 480 Climbing New York TRACON
11:23AM 40.8333 -74.2833 242° Southwest 222 255 6,000  Level New York TRACON
11:24AM 40.7667 -74.3000 191° South 259 298 6,000 1,980 Level New York TRACON
11:25AM 40.7000 -74.2833 169° South 278 320 10,000 3,840 Climbing New York TRACON
11:27AM 40.5892 -74.3319 198° South 256 295 16,300 2,640 Climbing New York Center
11:28AM 40.5111 -74.2978 162° South 263 303 17,000 300 Climbing New York Center
11:29AM 40.4397 -74.2450 151° Southeast 303 349 17,000 660 Level New York Center
11:30AM 40.3414 -74.1831 154° Southeast 344 396 18,400 2,040 Climbing New York Center
11:31AM 40.2475 -74.1892 183° South 361 415 21,100 2,100 Climbing New York Center
11:32AM 40.1253 -74.3056 216° Southwest 326 375 24,000 1,080 Climbing Washington Center
11:33AM 40.0492 -74.3800 217° Southwest 339 390 24,000 1,020 Level Washington Center
11:34AM 39.9728 -74.4572 218° Southwest 351 404 26,100 2,220 Climbing Washington Center
11:35AM 39.8964 -74.5342 218° Southwest 351 404 28,500 2,280 Climbing Washington Center
11:36AM 39.8158 -74.6136 217° Southwest 361 415 30,700 2,640 Climbing Washington Center
11:37AM 39.7308 -74.6931 216° Southwest 366 421 33,700 2,040 Climbing Washington Center
11:38AM 39.6483 -74.7775 218° Southwest 371 427 34,900 1,500 Climbing Washington Center
11:39AM 39.5531 -74.8675 216° Southwest 383 441 36,700 1,740 Climbing Washington Center
11:40AM 39.4617 -74.9572 217° Southwest 396 456 38,400 1,860 Climbing Washington Center
11:41AM 39.3725 -75.0467 218° Southwest 407 468 40,500 1,560 Climbing Washington Center
11:42AM 39.2750 -75.1250 212° Southwest 412 474 41,600 1,260 Climbing Washington Center
11:43AM 39.1586 -75.1739 198° South 432 497 43,000 1,320 Climbing Washington Center
11:44AM 39.0397 -75.2256 199° South 437 503 44,300 1,140 Climbing Washington Center
11:45AM 38.9253 -75.2714 197° South 437 503 45,300 780 Climbing Washington Center
11:46AM 38.8086 -75.3172 197° South 437 503 45,900 540 Climbing Washington Center
11:47AM 38.6900 -75.3708 199° South 447 514 46,400 480 Climbing Washington Center
11:48AM 38.5797 -75.4350 204° Southwest 442 509 46,900 300 Climbing Washington Center
11:49AM 38.4714 -75.5014 206° Southwest 437 503 47,000  Climbing Washington Center
11:50AM 38.3692 -75.5783 211° Southwest 432 497 47,000  Level Washington Center
11:51AM 38.2650 -75.6447 207° Southwest 432 497 47,000  Level Washington Center
11:52AM 38.1586 -75.7211 209° Southwest 432 497 47,000  Level Washington Center
11:53AM 38.0519 -75.7947 209° Southwest 432 497 47,000  Level Washington Center
11:54AM 37.9414 -75.8683 208° Southwest 443 510 47,000  Level Washington Center
11:55AM 37.8328 -75.9414 208° Southwest 448 516 47,000  Level Washington Center
11:56AM 37.7386 -76.0147 212° Southwest 448 516 47,000  Level Washington Center
11:57AM 37.6300 -76.0875 208° Southwest 448 516 47,000  Level Washington Center
11:58AM 37.5064 -76.1625 206° Southwest 443 510 47,000  Level Washington Center
11:59AM 37.3997 -76.2375 209° Southwest 443 510 47,000  Level Washington Center
12:00PM 37.2908 -76.3097 208° Southwest 448 516 47,000  Level Washington Center
12:01PM 37.1819 -76.3817 208° Southwest 448 516 47,000  Level Washington Center
12:02PM 37.0750 -76.4508 207° Southwest 443 510 47,000  Level Washington Center
12:03PM 36.9681 -76.5250 209° Southwest 438 504 47,000  Level Washington Center
12:04PM 36.8611 -76.5939 207° Southwest 438 504 47,000  Level Washington Center
12:05PM 36.7542 -76.6625 207° Southwest 438 504 47,000  Level Washington Center
12:06PM 36.6597 -76.7286 209° Southwest 438 504 47,000  Level Washington Center
12:07PM 36.5547 -76.7994 208° Southwest 438 504 47,000  Level Washington Center
12:08PM 36.4392 -76.8700 206° Southwest 433 498 47,000 -60 Level Washington Center
12:09PM 36.3489 -76.9356 210° Southwest 428 493 46,900  Descending Washington Center
12:10PM 36.2439 -77.0008 207° Southwest 428 493 47,000  Climbing Washington Center
12:11PM 36.1428 -77.0633 207° Southwest 417 480 47,000  Level Washington Center
12:12PM 36.0439 -77.1308 209° Southwest 411 473 47,000  Level Washington Center
12:13PM 35.9344 -77.1978 206° Southwest 411 473 47,000  Level Washington Center
12:14PM 35.8336 -77.2625 207° Southwest 411 473 47,000  Level Washington Center
12:15PM 35.7344 -77.3269 208° Southwest 411 473 47,000  Level Washington Center
12:16PM 35.6333 -77.3911 207° Southwest 411 473 47,000  Level Washington Center
12:17PM 35.5281 -77.4578 207° Southwest 416 479 47,000  Level Washington Center
12:18PM 35.4247 -77.5242 208° Southwest 416 479 47,000  Level Washington Center
12:19PM 35.3275 -77.6033 214° Southwest 416 479 47,000  Level Washington Center
12:20PM 35.2425 -77.6900 220° Southwest 411 473 47,000  Level Washington Center
12:21PM 35.1661 -77.7669 219° Southwest 406 467 47,000  Level Washington Center
12:22PM 35.0808 -77.8586 221° Southwest 406 467 47,000  Level Washington Center
12:23PM 34.9958 -77.9475 221° Southwest 411 473 47,000  Level Washington Center
12:24PM 34.9106 -78.0336 220° Southwest 411 473 47,000  Level Washington Center
12:25PM 34.8253 -78.1169 219° Southwest 411 473 47,000  Level Washington Center
12:26PM 34.7442 -78.2081 223° Southwest 411 473 47,000  Level Washington Center
12:30PM 34.4367 -78.5222 220° Southwest 413 475 47,000  Level Jacksonville Center
12:31PM 34.3519 -78.6094 220° Southwest 401 461 47,000  Level Jacksonville Center
12:32PM 34.2631 -78.6967 219° Southwest 401 461 47,000  Level Jacksonville Center
12:33PM 34.1764 -78.7839 220° Southwest 414 476 47,000  Level Jacksonville Center
12:34PM 34.0872 -78.8708 219° Southwest 414 476 47,000  Level Jacksonville Center
12:35PM 34.0003 -78.9575 220° Southwest 414 476 47,000  Level Jacksonville Center
12:36PM 33.9094 -79.0492 220° Southwest 419 482 47,000  Level Jacksonville Center
12:37PM 33.8222 -79.1378 220° Southwest 419 482 47,000  Level Jacksonville Center
12:38PM 33.7308 -79.2217 217° Southwest 419 482 47,000  Level Jacksonville Center
12:39PM 33.6375 -79.3128 219° Southwest 400 460 47,000  Level Jacksonville Center
12:40PM 33.5483 -79.4036 220° Southwest 413 475 47,000  Level Jacksonville Center
12:41PM 33.4586 -79.4894 219° Southwest 418 481 47,000  Level Jacksonville Center
12:42PM 33.3672 -79.5775 219° Southwest 418 481 47,000  Level Jacksonville Center
12:43PM 33.2878 -79.6575 220° Southwest 418 481 47,000  Level Jacksonville Center
12:44PM 33.1981 -79.7425 218° Southwest 418 481 47,000  Level Jacksonville Center
12:45PM 33.1044 -79.8350 220° Southwest 418 481 47,000  Level Jacksonville Center
12:46PM 33.0147 -79.9200 218° Southwest 418 481 47,000  Level Jacksonville Center
12:47PM 32.9206 -80.0072 218° Southwest 424 488 47,000  Level Jacksonville Center
12:48PM 32.8222 -80.0894 215° Southwest 435 501 47,000  Level Jacksonville Center
12:49PM 32.7194 -80.1642 211° Southwest 435 501 47,000  Level Jacksonville Center
12:50PM 32.6208 -80.2386 212° Southwest 435 501 47,000  Level Jacksonville Center
12:51PM 32.5244 -80.3106 212° Southwest 424 488 47,000  Level Jacksonville Center
12:52PM 32.4256 -80.3847 212° Southwest 424 488 47,000  Level Jacksonville Center
12:53PM 32.3206 -80.4539 209° Southwest 424 488 47,000  Level Jacksonville Center
12:54PM 32.2067 -80.5011 199° South 424 488 47,000  Level Jacksonville Center
12:55PM 32.0864 -80.5508 199° South 430 495 47,000 -60 Level Jacksonville Center
12:56PM 31.9850 -80.5950 200° South 430 495 46,900 -540 Descending Jacksonville Center
12:57PM 31.8628 -80.6469 200° South 425 489 46,000 -900 Descending Jacksonville Center
12:58PM 31.7633 -80.6886 200° South 425 489 45,100 -1,020 Descending Jacksonville Center
12:59PM 31.6408 -80.7378 199° South 425 489 44,000 -1,260 Descending Jacksonville Center
01:00PM 31.5286 -80.7672 193° South 431 496 42,600 -1,500 Descending Jacksonville Center
01:01PM 31.3994 -80.7847 187° South 465 535 41,000 -1,560 Descending Jacksonville Center
01:02PM 31.2725 -80.8072 189° South 475 547 39,500 -1,500 Descending Jacksonville Center
01:03PM 31.1369 -80.8247 186° South 480 552 38,000 -1,560 Descending Jacksonville Center
01:04PM 31.0017 -80.8469 188° South 487 560 36,400 -1,620 Descending Jacksonville Center
01:05PM 30.8728 -80.8717 189° South 482 555 34,800 -1,200 Descending Jacksonville Center
01:06PM 30.7372 -80.8914 187° South 482 555 34,000 -420 Descending Jacksonville Center
01:07PM 30.6039 -80.9111 187° South 482 555 34,000  Level Jacksonville Center
01:08PM 30.4728 -80.9331 188° South 482 555 34,000 -60 Level Jacksonville Center
01:09PM 30.3417 -80.9525 187° South 482 555 33,900 -120 Descending Jacksonville Center
01:10PM 30.2103 -80.9719 187° South 482 555 33,800 -1,320 Descending Jacksonville Center
01:11PM 30.0750 -80.9939 188° South 482 555 31,300 -2,460 Descending Jacksonville Center
01:12PM 29.9458 -81.0133 187° South 482 555 28,900 -2,400 Descending Jacksonville Center
01:13PM 29.8186 -81.0350 188° South 482 555 26,600 -2,340 Descending Jacksonville Center
01:14PM 29.6958 -81.0539 188° South 464 534 24,300 -2,280 Descending Jacksonville Center
01:15PM 29.5772 -81.0753 189° South 452 520 22,100 -2,160 Descending Jacksonville Center
01:16PM 29.4667 -81.0869 185° South 432 497 20,000 -2,100 Descending Jacksonville Center
01:17PM 29.3542 -81.1033 187° South 415 478 18,000 -2,040 Descending Jacksonville Center
01:18PM 29.2478 -81.1100 183° South 398 458 16,000 -1,980 Descending Jacksonville Center
01:19PM 29.1456 -81.1000 175° South 380 437 14,100 -1,800 Descending Jacksonville Center
01:20PM 29.0536 -81.0944 177° South 356 410 12,500 -1,260 Descending Jacksonville Center
01:21PM 28.9658 -81.0889 177° South 335 386 11,600 -1,200 Descending Jacksonville Center
01:22PM 28.8822 -81.0786 174° South 321 369 10,200 -1,500 Descending Jacksonville Center
01:23PM 28.7986 -81.0753 178° South 309 356 8,600 -1,560 Descending Jacksonville Center
01:24PM 28.7500 -81.1500 233° Southwest 242 278 7,000 -1,440 Descending Orlando TRACON
01:25PM 28.7333 -81.2167 254° West 242 278 5,600 -1,260 Descending Orlando TRACON
01:26PM 28.7000 -81.2833 240° Southwest 230 265 4,700 -900 Descending Orlando TRACON
01:27PM 28.6500 -81.3167 210° Southwest 240 276 4,000 -900 Descending Orlando TRACON
01:28PM 28.5833 -81.3167 180° South 249 287 3,000 -1,200 Descending Orlando TRACON
01:29PM 28.5333 -81.3167 180° South 203 234 1,700 -1,080 Descending Orlando TRACON
01:30PM 28.4833 -81.3167 180° South 131 151 900 -840 Descending Orlando TRACON
01:32PM 28.4294 -81.3090 230° Southwest  Level Estimated
01:39PM 28.4294 -81.3090 230° Southwest  Level Estimated
01:40PM 28.4294 -81.3090 230° Southwest  Level Estimated
01:41PM 28.4294 -81.3090 230° Southwest  Level Estimated
01:42PM 28.4294 -81.3090 230° Southwest  Level Estimated